This is the latest recevied weather packets stored in our database for station/object NA4DL. If no packets are shown the sender has not sent any weather packets the latest 10 day(s).
| Time | Temp. | Humidity | Pressure | Rain* | Wind** | Luminosity | Snow |
|---|---|---|---|---|---|---|---|
| 1777441221 | 16.67° C | 99% | 1012.7 hPa | 20.83 mm | - | 0 W/m² | - |
| 1777440619 | 16.67° C | 99% | 1013.8 hPa | 21.08 mm | - | 0 W/m² | - |
| 1777438817 | 17.22° C | 99% | 1014.6 hPa | 15.49 mm | - | 0 W/m² | - |
| 1777433419 | 17.78° C | 99% | 1014.1 hPa | 0 mm | - | 0 W/m² | - |
| 1777430420 | 18.33° C | 99% | 1014.5 hPa | 0 mm | - | 0 W/m² | - |
| 1777417819 | 22.22° C | 92% | 1014.8 hPa | 0 mm | - | 2 W/m² | - |
| 1777408258 | 26.11° C | 76% | 1013 hPa | 0 mm | - | 335 W/m² | - |
| 1777406419 | 26.11° C | 75% | 1014 hPa | 0 mm | - | 452 W/m² | - |
| 1777403420 | 25.56° C | 78% | 1015 hPa | 0 mm | - | 694 W/m² | - |
| 1777401620 | 25.56° C | 78% | 1015.1 hPa | 0 mm | - | 508 W/m² | - |
| 1777400417 | 25° C | 81% | 1015.4 hPa | 0 mm | - | 983 W/m² | - |
| 1777390820 | 21.11° C | 91% | 1016.7 hPa | 0 mm | - | 250 W/m² | - |
| 1777389020 | 20.56° C | 92% | 1016.7 hPa | 0 mm | - | 99 W/m² | - |
| 1777380619 | 17.78° C | 99% | 1015.4 hPa | 0 mm | - | 48 W/m² | - |
| 1777377040 | 17.22° C | 99% | 1015 hPa | 0 mm | - | 14 W/m² | - |
| 1777375820 | 17.22° C | 99% | 1015.2 hPa | 0.51 mm | - | 4 W/m² | - |
| 1777374041 | 17.22° C | 99% | 1015 hPa | 0.51 mm | - | 0 W/m² | - |
| 1777372841 | 17.22° C | 99% | 1014.4 hPa | 0.25 mm | - | 0 W/m² | - |
| 1777372221 | 17.22° C | 99% | 1014.2 hPa | 0 mm | - | 0 W/m² | - |
| 1777369219 | 16.67° C | 99% | 1011.3 hPa | 1.78 mm | - | 0 W/m² | - |
| 1777368023 | 16.67° C | 99% | 1012.3 hPa | 3.56 mm | - | 0 W/m² | - |
| 1777366263 | 16.67° C | 99% | 1014.1 hPa | 6.6 mm | - | 0 W/m² | - |
| 1777365023 | 16.67° C | 99% | 1014 hPa | 11.43 mm | - | 0 W/m² | - |
| 1777364423 | 16.11° C | 99% | 1014.6 hPa | 12.95 mm | - | 0 W/m² | - |
| 1777363824 | 16.11° C | 99% | 1014 hPa | 12.19 mm | - | 0 W/m² | - |
* Rain latest hour (hover to see other rain measurements)
** Current wind speed in m/s (hover to see current wind gust speed)